sensor_id;sensor_type;location;lat;lon;timestamp;pressure;altitude;pressure_sealevel;temperature;humidity
65359;BME280;52491;45.900;6.346;2022-10-15T00:00:37;93942.38;;;23.28;43.23
65359;BME280;52491;45.900;6.346;2022-10-15T00:03:03;93943.16;;;23.28;43.20
65359;BME280;52491;45.900;6.346;2022-10-15T00:05:29;93933.31;;;23.29;43.25
65359;BME280;52491;45.900;6.346;2022-10-15T00:07:54;93919.47;;;23.27;43.20
65359;BME280;52491;45.900;6.346;2022-10-15T00:10:21;93919.75;;;23.25;43.40
65359;BME280;52491;45.900;6.346;2022-10-15T00:12:46;93924.00;;;23.26;43.28
65359;BME280;52491;45.900;6.346;2022-10-15T00:15:12;93913.13;;;23.28;43.31
65359;BME280;52491;45.900;6.346;2022-10-15T00:17:38;93914.94;;;23.27;43.39
65359;BME280;52491;45.900;6.346;2022-10-15T00:20:06;93910.69;;;23.26;43.23
65359;BME280;52491;45.900;6.346;2022-10-15T00:22:33;93909.91;;;23.26;43.28
65359;BME280;52491;45.900;6.346;2022-10-15T00:24:59;93907.75;;;23.22;43.37
65359;BME280;52491;45.900;6.346;2022-10-15T00:27:25;93900.81;;;23.21;43.37
65359;BME280;52491;45.900;6.346;2022-10-15T00:29:50;93901.63;;;23.22;43.40
65359;BME280;52491;45.900;6.346;2022-10-15T00:32:16;93894.69;;;23.21;43.18
65359;BME280;52491;45.900;6.346;2022-10-15T00:34:42;93888.56;;;23.20;43.24
65359;BME280;52491;45.900;6.346;2022-10-15T00:37:08;93880.84;;;23.19;43.43
65359;BME280;52491;45.900;6.346;2022-10-15T00:39:35;93875.53;;;23.19;43.37
65359;BME280;52491;45.900;6.346;2022-10-15T00:42:00;93880.03;;;23.18;43.33
65359;BME280;52491;45.900;6.346;2022-10-15T00:49:37;93889.88;;;23.18;43.22
65359;BME280;52491;45.900;6.346;2022-10-15T00:52:09;93877.16;;;23.20;43.34
65359;BME280;52491;45.900;6.346;2022-10-15T00:54:39;93877.16;;;23.20;43.31
65359;BME280;52491;45.900;6.346;2022-10-15T00:57:06;93871.81;;;23.20;43.01
65359;BME280;52491;45.900;6.346;2022-10-15T00:59:36;93873.94;;;23.18;43.10
65359;BME280;52491;45.900;6.346;2022-10-15T01:02:04;93872.84;;;23.19;43.15
65359;BME280;52491;45.900;6.346;2022-10-15T01:04:31;93873.13;;;23.17;42.96
65359;BME280;52491;45.900;6.346;2022-10-15T01:06:57;93879.53;;;23.21;43.04
65359;BME280;52491;45.900;6.346;2022-10-15T01:09:23;93882.69;;;23.18;43.18
65359;BME280;52491;45.900;6.346;2022-10-15T01:11:53;93880.84;;;23.19;43.03
65359;BME280;52491;45.900;6.346;2022-10-15T01:17:10;93883.78;;;23.17;43.08
65359;BME280;52491;45.900;6.346;2022-10-15T01:25:54;93877.34;;;23.13;43.08
65359;BME280;52491;45.900;6.346;2022-10-15T01:31:24;93873.66;;;23.14;43.17
65359;BME280;52491;45.900;6.346;2022-10-15T01:34:46;93865.66;;;23.14;43.17
65359;BME280;52491;45.900;6.346;2022-10-15T01:37:12;93871.78;;;23.15;43.16
65359;BME280;52491;45.900;6.346;2022-10-15T01:39:48;93864.59;;;23.15;43.06
65359;BME280;52491;45.900;6.346;2022-10-15T01:42:28;93850.50;;;23.15;43.20
65359;BME280;52491;45.900;6.346;2022-10-15T01:45:11;93862.22;;;23.14;43.04
65359;BME280;52491;45.900;6.346;2022-10-15T01:47:48;93850.75;;;23.13;43.01
65359;BME280;52491;45.900;6.346;2022-10-15T01:50:19;93844.63;;;23.13;43.12
65359;BME280;52491;45.900;6.346;2022-10-15T01:52:48;93840.09;;;23.13;42.97
65359;BME280;52491;45.900;6.346;2022-10-15T01:55:15;93835.63;;;23.14;43.06
65359;BME280;52491;45.900;6.346;2022-10-15T01:57:43;93826.81;;;23.13;42.92
65359;BME280;52491;45.900;6.346;2022-10-15T02:00:10;93823.13;;;23.14;43.05
65359;BME280;52491;45.900;6.346;2022-10-15T02:02:36;93813.50;;;23.13;43.04
65359;BME280;52491;45.900;6.346;2022-10-15T02:05:04;93823.13;;;23.14;43.04
65359;BME280;52491;45.900;6.346;2022-10-15T02:07:57;93819.91;;;23.12;42.93
65359;BME280;52491;45.900;6.346;2022-10-15T02:10:30;93819.09;;;23.12;42.92
65359;BME280;52491;45.900;6.346;2022-10-15T02:13:13;93823.34;;;23.13;42.93
65359;BME280;52491;45.900;6.346;2022-10-15T02:16:19;93826.00;;;23.13;42.99
65359;BME280;52491;45.900;6.346;2022-10-15T02:19:05;93824.97;;;23.14;42.80
65359;BME280;52491;45.900;6.346;2022-10-15T02:21:38;93825.22;;;23.12;42.88
65359;BME280;52491;45.900;6.346;2022-10-15T02:24:11;93814.03;;;23.10;43.00
65359;BME280;52491;45.900;6.346;2022-10-15T02:26:39;93805.81;;;23.12;42.94
65359;BME280;52491;45.900;6.346;2022-10-15T02:29:10;93804.22;;;23.11;42.90
65359;BME280;52491;45.900;6.346;2022-10-15T02:31:38;93796.25;;;23.11;42.88
65359;BME280;52491;45.900;6.346;2022-10-15T02:34:08;93790.38;;;23.09;42.80
65359;BME280;52491;45.900;6.346;2022-10-15T02:36:38;93794.38;;;23.11;42.81
65359;BME280;52491;45.900;6.346;2022-10-15T02:39:06;93801.56;;;23.11;42.99
65359;BME280;52491;45.900;6.346;2022-10-15T02:41:34;93802.59;;;23.10;42.88
65359;BME280;52491;45.900;6.346;2022-10-15T02:44:02;93801.81;;;23.09;42.99
65359;BME280;52491;45.900;6.346;2022-10-15T02:46:28;93803.41;;;23.10;42.90
65359;BME280;52491;45.900;6.346;2022-10-15T02:48:56;93801.81;;;23.09;42.88
65359;BME280;52491;45.900;6.346;2022-10-15T02:51:22;93806.31;;;23.09;42.87
65359;BME280;52491;45.900;6.346;2022-10-15T02:53:47;93806.31;;;23.09;42.89
65359;BME280;52491;45.900;6.346;2022-10-15T02:56:13;93805.53;;;23.08;42.83
65359;BME280;52491;45.900;6.346;2022-10-15T02:58:40;93804.47;;;23.09;42.79
65359;BME280;52491;45.900;6.346;2022-10-15T03:01:08;93812.44;;;23.09;42.77
65359;BME280;52491;45.900;6.346;2022-10-15T03:03:34;93806.31;;;23.09;42.83
65359;BME280;52491;45.900;6.346;2022-10-15T03:06:01;93808.19;;;23.08;42.87
65359;BME280;52491;45.900;6.346;2022-10-15T03:08:27;93809.22;;;23.07;42.85
65359;BME280;52491;45.900;6.346;2022-10-15T03:10:53;93808.44;;;23.07;42.81
65359;BME280;52491;45.900;6.346;2022-10-15T03:13:18;93806.56;;;23.07;43.02
65359;BME280;52491;45.900;6.346;2022-10-15T03:15:44;93806.28;;;23.04;43.03
65359;BME280;52491;45.900;6.346;2022-10-15T03:18:10;93808.94;;;23.04;43.05
65359;BME280;52491;45.900;6.346;2022-10-15T03:20:35;93811.59;;;23.04;43.13
65359;BME280;52491;45.900;6.346;2022-10-15T03:23:01;93807.63;;;23.06;43.06
65359;BME280;52491;45.900;6.346;2022-10-15T03:25:26;93808.94;;;23.04;43.08
65359;BME280;52491;45.900;6.346;2022-10-15T03:30:18;93800.72;;;23.05;43.03
65359;BME280;52491;45.900;6.346;2022-10-15T03:32:44;93798.06;;;23.05;42.95
65359;BME280;52491;45.900;6.346;2022-10-15T03:35:10;93791.94;;;23.05;42.91
65359;BME280;52491;45.900;6.346;2022-10-15T03:37:35;93781.81;;;23.01;42.94
65359;BME280;52491;45.900;6.346;2022-10-15T03:40:01;93791.69;;;23.06;43.00
65359;BME280;52491;45.900;6.346;2022-10-15T03:42:27;93785.56;;;23.06;43.10
65359;BME280;52491;45.900;6.346;2022-10-15T03:44:53;93777.03;;;23.04;43.30
65359;BME280;52491;45.900;6.346;2022-10-15T03:47:18;93785.00;;;23.04;43.04
65359;BME280;52491;45.900;6.346;2022-10-15T03:52:09;93780.75;;;23.03;43.21
65359;BME280;52491;45.900;6.346;2022-10-15T03:54:35;93783.44;;;23.03;43.11
65359;BME280;52491;45.900;6.346;2022-10-15T03:57:00;93781.81;;;23.01;42.99
65359;BME280;52491;45.900;6.346;2022-10-15T03:59:26;93783.66;;;23.01;43.09
65359;BME280;52491;45.900;6.346;2022-10-15T04:01:52;93784.47;;;23.01;43.08
65359;BME280;52491;45.900;6.346;2022-10-15T04:04:17;93783.66;;;23.01;43.10
65359;BME280;52491;45.900;6.346;2022-10-15T04:06:43;93780.22;;;23.00;43.15
65359;BME280;52491;45.900;6.346;2022-10-15T04:09:12;93788.19;;;23.00;43.16
65359;BME280;52491;45.900;6.346;2022-10-15T04:11:38;93787.13;;;23.01;43.10
65359;BME280;52491;45.900;6.346;2022-10-15T04:14:04;93786.88;;;23.03;42.99
65359;BME280;52491;45.900;6.346;2022-10-15T04:16:30;93792.19;;;23.03;43.13
65359;BME280;52491;45.900;6.346;2022-10-15T04:18:56;93788.75;;;23.03;43.09
65359;BME280;52491;45.900;6.346;2022-10-15T04:21:23;93784.78;;;23.05;43.04
65359;BME280;52491;45.900;6.346;2022-10-15T04:26:14;93781.56;;;23.03;42.88
65359;BME280;52491;45.900;6.346;2022-10-15T04:28:40;93791.94;;;23.05;42.98
65359;BME280;52491;45.900;6.346;2022-10-15T04:31:06;93783.94;;;23.05;42.91
65359;BME280;52491;45.900;6.346;2022-10-15T04:33:32;93785.00;;;23.04;42.98
65359;BME280;52491;45.900;6.346;2022-10-15T04:36:03;93789.78;;;23.01;42.98
65359;BME280;52491;45.900;6.346;2022-10-15T04:38:30;93783.66;;;23.01;42.99
65359;BME280;52491;45.900;6.346;2022-10-15T04:41:07;93789.25;;;22.99;43.20
65359;BME280;52491;45.900;6.346;2022-10-15T04:43:34;93794.31;;;23.01;43.03
65359;BME280;52491;45.900;6.346;2022-10-15T04:46:01;93798.81;;;23.00;43.09
65359;BME280;52491;45.900;6.346;2022-10-15T04:48:28;93800.69;;;23.00;43.07
65359;BME280;52491;45.900;6.346;2022-10-15T04:50:55;93804.13;;;23.00;42.94
65359;BME280;52491;45.900;6.346;2022-10-15T04:53:26;93804.13;;;23.00;42.94
65359;BME280;52491;45.900;6.346;2022-10-15T04:55:52;93796.69;;;22.97;43.13
65359;BME280;52491;45.900;6.346;2022-10-15T04:58:18;93806.78;;;23.00;42.93
65359;BME280;52491;45.900;6.346;2022-10-15T05:00:43;93812.66;;;23.03;42.79
65359;BME280;52491;45.900;6.346;2022-10-15T05:03:09;93809.19;;;23.02;42.91
65359;BME280;52491;45.900;6.346;2022-10-15T05:05:34;93807.34;;;23.03;42.87
65359;BME280;52491;45.900;6.346;2022-10-15T05:08:01;93811.59;;;23.04;42.90
65359;BME280;52491;45.900;6.346;2022-10-15T05:10:27;93810.25;;;23.01;42.85
65359;BME280;52491;45.900;6.346;2022-10-15T05:12:52;93813.97;;;23.00;43.01
65359;BME280;52491;45.900;6.346;2022-10-15T05:15:18;93807.59;;;23.01;42.97
65359;BME280;52491;45.900;6.346;2022-10-15T05:17:43;93824.91;;;23.04;42.85
65359;BME280;52491;45.900;6.346;2022-10-15T05:20:09;93824.91;;;23.04;42.74
65359;BME280;52491;45.900;6.346;2022-10-15T05:22:35;93817.44;;;23.00;42.83
65359;BME280;52491;45.900;6.346;2022-10-15T05:25:00;93814.78;;;23.00;42.88
65359;BME280;52491;45.900;6.346;2022-10-15T05:27:26;93815.56;;;23.01;42.92
65359;BME280;52491;45.900;6.346;2022-10-15T05:29:52;93816.63;;;23.00;42.94
65359;BME280;52491;45.900;6.346;2022-10-15T05:32:17;93819.81;;;23.02;42.91
65359;BME280;52491;45.900;6.346;2022-10-15T05:34:43;93823.31;;;23.03;43.05
65359;BME280;52491;45.900;6.346;2022-10-15T05:37:08;93818.00;;;23.03;42.91
65359;BME280;52491;45.900;6.346;2022-10-15T05:39:34;93814.78;;;23.00;42.89
65359;BME280;52491;45.900;6.346;2022-10-15T05:41:59;93819.28;;;23.00;42.87
65359;BME280;52491;45.900;6.346;2022-10-15T05:44:25;93816.63;;;23.00;42.95
65359;BME280;52491;45.900;6.346;2022-10-15T05:46:51;93819.03;;;23.01;42.87
65359;BME280;52491;45.900;6.346;2022-10-15T05:49:16;93824.34;;;23.01;42.88
65359;BME280;52491;45.900;6.346;2022-10-15T05:51:43;93821.69;;;23.01;42.94
65359;BME280;52491;45.900;6.346;2022-10-15T05:54:09;93816.09;;;22.98;42.95
65359;BME280;52491;45.900;6.346;2022-10-15T05:56:34;93824.34;;;23.01;42.91
65359;BME280;52491;45.900;6.346;2022-10-15T05:59:00;93827.00;;;23.01;42.79
65359;BME280;52491;45.900;6.346;2022-10-15T06:01:27;93827.28;;;23.00;42.95
65359;BME280;52491;45.900;6.346;2022-10-15T06:03:52;93828.63;;;23.03;42.87
65359;BME280;52491;45.900;6.346;2022-10-15T06:08:48;93822.25;;;23.04;42.84
65359;BME280;52491;45.900;6.346;2022-10-15T06:11:15;93814.25;;;23.04;42.86
65359;BME280;52491;45.900;6.346;2022-10-15T06:13:41;93814.25;;;23.04;42.82
65359;BME280;52491;45.900;6.346;2022-10-15T06:16:08;93824.66;;;23.05;42.67
65359;BME280;52491;45.900;6.346;2022-10-15T06:18:34;93822.25;;;23.04;42.76
65359;BME280;52491;45.900;6.346;2022-10-15T06:21:00;93824.66;;;23.05;42.76
65359;BME280;52491;45.900;6.346;2022-10-15T06:23:26;93824.66;;;23.05;42.79
65359;BME280;52491;45.900;6.346;2022-10-15T06:25:52;93815.84;;;23.05;42.78
65359;BME280;52491;45.900;6.346;2022-10-15T06:28:17;93818.28;;;23.06;42.80
65359;BME280;52491;45.900;6.346;2022-10-15T06:30:43;93816.41;;;23.07;42.72
65359;BME280;52491;45.900;6.346;2022-10-15T06:33:09;93823.59;;;23.06;42.81
65359;BME280;52491;45.900;6.346;2022-10-15T06:35:34;93822.53;;;23.07;42.79
65359;BME280;52491;45.900;6.346;2022-10-15T06:38:01;93829.97;;;23.10;42.78
65359;BME280;52491;45.900;6.346;2022-10-15T06:40:28;93825.50;;;23.11;42.79
65359;BME280;52491;45.900;6.346;2022-10-15T06:42:53;93831.34;;;23.13;42.89
65359;BME280;52491;45.900;6.346;2022-10-15T06:45:19;93828.69;;;23.13;42.88
65359;BME280;52491;45.900;6.346;2022-10-15T06:47:44;93834.00;;;23.13;42.92
65359;BME280;52491;45.900;6.346;2022-10-15T06:50:10;93824.97;;;23.14;43.02
65359;BME280;52491;45.900;6.346;2022-10-15T06:52:36;93826.81;;;23.13;43.11
65359;BME280;52491;45.900;6.346;2022-10-15T06:55:02;93834.53;;;23.15;43.02
65359;BME280;52491;45.900;6.346;2022-10-15T06:57:28;93820.47;;;23.14;42.99
65359;BME280;52491;45.900;6.346;2022-10-15T06:59:53;93833.47;;;23.16;42.97
65359;BME280;52491;45.900;6.346;2022-10-15T07:02:19;93839.63;;;23.16;42.97
65359;BME280;52491;45.900;6.346;2022-10-15T07:04:45;93830.81;;;23.16;43.02
65359;BME280;52491;45.900;6.346;2022-10-15T07:07:11;93836.44;;;23.19;43.04
65359;BME280;52491;45.900;6.346;2022-10-15T07:09:37;93835.38;;;23.20;42.95
65359;BME280;52491;45.900;6.346;2022-10-15T07:12:04;93842.56;;;23.20;42.75
65359;BME280;52491;45.900;6.346;2022-10-15T07:14:29;93846.56;;;23.22;42.75
65359;BME280;52491;45.900;6.346;2022-10-15T07:16:56;93850.81;;;23.23;42.94
65359;BME280;52491;45.900;6.346;2022-10-15T07:19:21;93844.19;;;23.26;42.52
65359;BME280;52491;45.900;6.346;2022-10-15T07:21:47;93843.13;;;23.27;42.88
65359;BME280;52491;45.900;6.346;2022-10-15T07:24:14;93848.22;;;23.29;42.69
65359;BME280;52491;45.900;6.346;2022-10-15T07:26:41;93842.66;;;23.30;42.79
65359;BME280;52491;45.900;6.346;2022-10-15T07:29:10;93838.41;;;23.34;42.58
65359;BME280;52491;45.900;6.346;2022-10-15T07:31:38;93837.34;;;23.35;42.64
65359;BME280;52491;45.900;6.346;2022-10-15T07:34:05;93836.03;;;23.38;42.78
65359;BME280;52491;45.900;6.346;2022-10-15T07:36:30;93844.56;;;23.40;42.87
65359;BME280;52491;45.900;6.346;2022-10-15T07:38:56;93844.84;;;23.43;42.75
65359;BME280;52491;45.900;6.346;2022-10-15T07:41:21;93840.31;;;23.44;42.79
65359;BME280;52491;45.900;6.346;2022-10-15T07:43:50;93843.28;;;23.48;42.60
65359;BME280;52491;45.900;6.346;2022-10-15T07:46:16;93835.56;;;23.51;42.75
65359;BME280;52491;45.900;6.346;2022-10-15T07:48:41;93845.97;;;23.53;42.89
65359;BME280;52491;45.900;6.346;2022-10-15T07:51:08;93842.78;;;23.56;42.58
65359;BME280;52491;45.900;6.346;2022-10-15T07:53:34;93839.06;;;23.57;42.83
65359;BME280;52491;45.900;6.346;2022-10-15T07:56:02;93838.53;;;23.60;42.85
65359;BME280;52491;45.900;6.346;2022-10-15T07:58:29;93847.88;;;23.62;42.61
65359;BME280;52491;45.900;6.346;2022-10-15T08:00:59;93846.81;;;23.63;42.74
65359;BME280;52491;45.900;6.346;2022-10-15T08:03:25;93850.28;;;23.64;43.05
65359;BME280;52491;45.900;6.346;2022-10-15T08:05:51;93849.78;;;23.67;42.85
65359;BME280;52491;45.900;6.346;2022-10-15T08:08:18;93849.25;;;23.70;42.79
65359;BME280;52491;45.900;6.346;2022-10-15T08:10:45;93852.47;;;23.72;43.08
65359;BME280;52491;45.900;6.346;2022-10-15T08:13:11;93851.13;;;23.70;42.89
65359;BME280;52491;45.900;6.346;2022-10-15T08:15:40;93859.31;;;23.63;43.26
65359;BME280;52491;45.900;6.346;2022-10-15T08:18:07;93863.03;;;23.62;43.51
65359;BME280;52491;45.900;6.346;2022-10-15T08:20:35;93858.00;;;23.65;43.21
65359;BME280;52491;45.900;6.346;2022-10-15T08:23:01;93841.50;;;23.68;43.09
65359;BME280;52491;45.900;6.346;2022-10-15T08:25:28;93841.81;;;23.72;43.10
65359;BME280;52491;45.900;6.346;2022-10-15T08:27:53;93841.31;;;23.75;43.01
65359;BME280;52491;45.900;6.346;2022-10-15T08:30:20;93845.31;;;23.78;43.15
65359;BME280;52491;45.900;6.346;2022-10-15T08:32:46;93851.19;;;23.80;42.98
65359;BME280;52491;45.900;6.346;2022-10-15T08:35:11;93847.19;;;23.82;43.08
65359;BME280;52491;45.900;6.346;2022-10-15T08:37:37;93844.00;;;23.85;43.04
65359;BME280;52491;45.900;6.346;2022-10-15T08:40:04;93841.91;;;23.87;42.87
65359;BME280;52491;45.900;6.346;2022-10-15T08:42:37;93844.31;;;23.89;43.18
65359;BME280;52491;45.900;6.346;2022-10-15T08:45:10;93842.19;;;23.91;43.29
65359;BME280;52491;45.900;6.346;2022-10-15T08:47:49;93846.19;;;23.94;43.12
65359;BME280;52491;45.900;6.346;2022-10-15T08:50:25;93840.63;;;23.95;42.84
65359;BME280;52491;45.900;6.346;2022-10-15T08:52:53;93839.28;;;23.98;43.10
65359;BME280;52491;45.900;6.346;2022-10-15T08:55:21;93840.88;;;23.99;43.11
65359;BME280;52491;45.900;6.346;2022-10-15T08:58:01;93845.69;;;24.02;42.95
65359;BME280;52491;45.900;6.346;2022-10-15T09:00:35;93840.13;;;24.03;43.23
65359;BME280;52491;45.900;6.346;2022-10-15T09:03:11;93849.44;;;24.06;43.16
65359;BME280;52491;45.900;6.346;2022-10-15T09:06:30;93854.78;;;24.06;43.24
65359;BME280;52491;45.900;6.346;2022-10-15T09:14:40;93852.38;;;24.09;43.25
65359;BME280;52491;45.900;6.346;2022-10-15T09:17:22;93851.06;;;24.12;43.19
65359;BME280;52491;45.900;6.346;2022-10-15T09:19:52;93848.13;;;24.13;43.22
65359;BME280;52491;45.900;6.346;2022-10-15T09:22:23;93843.88;;;24.12;43.53
65359;BME280;52491;45.900;6.346;2022-10-15T09:24:49;93846.25;;;24.14;43.46
65359;BME280;52491;45.900;6.346;2022-10-15T09:32:54;93848.59;;;23.95;43.57
65359;BME280;52491;45.900;6.346;2022-10-15T09:35:42;93847.44;;;23.76;43.92
65359;BME280;52491;45.900;6.346;2022-10-15T09:38:47;93844.94;;;23.59;44.05
65359;BME280;52491;45.900;6.346;2022-10-15T09:43:48;93832.69;;;23.63;44.27
65359;BME280;52491;45.900;6.346;2022-10-15T09:46:16;93828.78;;;23.71;44.09
65359;BME280;52491;45.900;6.346;2022-10-15T09:49:07;93832.53;;;23.80;44.02
65359;BME280;52491;45.900;6.346;2022-10-15T09:54:43;93834.50;;;23.95;43.92
65359;BME280;52491;45.900;6.346;2022-10-15T09:57:13;93824.38;;;24.02;43.85
65359;BME280;52491;45.900;6.346;2022-10-15T09:59:56;93835.03;;;24.02;43.83
65359;BME280;52491;45.900;6.346;2022-10-15T10:02:24;93825.97;;;23.98;44.09
65359;BME280;52491;45.900;6.346;2022-10-15T10:04:50;93827.03;;;24.02;44.13
65359;BME280;52491;45.900;6.346;2022-10-15T10:07:34;93823.09;;;24.09;44.02
65359;BME280;52491;45.900;6.346;2022-10-15T10:10:20;93822.56;;;24.18;43.77
65359;BME280;52491;45.900;6.346;2022-10-15T10:12:47;93816.97;;;24.24;43.79
65359;BME280;52491;45.900;6.346;2022-10-15T10:15:31;93817.81;;;24.30;43.82
65359;BME280;52491;45.900;6.346;2022-10-15T10:18:00;93823.94;;;24.35;43.56
65359;BME280;52491;45.900;6.346;2022-10-15T10:20:30;93813.28;;;24.41;43.40
65359;BME280;52491;45.900;6.346;2022-10-15T10:23:02;93810.13;;;24.44;43.79
65359;BME280;52491;45.900;6.346;2022-10-15T10:25:47;93814.38;;;24.45;43.74
65359;BME280;52491;45.900;6.346;2022-10-15T10:28:25;93814.88;;;24.42;43.75
65359;BME280;52491;45.900;6.346;2022-10-15T10:33:30;93801.59;;;24.47;43.54
65359;BME280;52491;45.900;6.346;2022-10-15T10:35:58;93804.81;;;24.49;43.56
65359;BME280;52491;45.900;6.346;2022-10-15T10:38:34;93797.63;;;24.49;43.23
65359;BME280;52491;45.900;6.346;2022-10-15T10:41:07;93795.75;;;24.50;43.36
65359;BME280;52491;45.900;6.346;2022-10-15T10:43:52;93797.88;;;24.53;43.04
65359;BME280;52491;45.900;6.346;2022-10-15T10:46:19;93800.00;;;24.56;42.92
65359;BME280;52491;45.900;6.346;2022-10-15T10:48:52;93790.16;;;24.56;43.12
65359;BME280;52491;45.900;6.346;2022-10-15T10:54:03;93786.19;;;24.59;42.83
65359;BME280;52491;45.900;6.346;2022-10-15T10:56:34;93778.44;;;24.63;43.04
65359;BME280;52491;45.900;6.346;2022-10-15T10:59:47;93777.63;;;24.67;42.99
65359;BME280;52491;45.900;6.346;2022-10-15T11:02:15;93777.63;;;24.72;43.02
65359;BME280;52491;45.900;6.346;2022-10-15T11:04:40;93777.63;;;24.77;42.71
65359;BME280;52491;45.900;6.346;2022-10-15T11:07:28;93768.31;;;24.80;42.81
65359;BME280;52491;45.900;6.346;2022-10-15T11:13:44;93770.19;;;24.85;42.62
65359;BME280;52491;45.900;6.346;2022-10-15T11:16:38;93764.56;;;24.86;42.79
65359;BME280;52491;45.900;6.346;2022-10-15T11:19:22;93764.56;;;24.91;42.19
65359;BME280;52491;45.900;6.346;2022-10-15T11:27:54;93757.59;;;24.95;42.39
65359;BME280;52491;45.900;6.346;2022-10-15T11:30:37;93758.44;;;24.96;42.24
65359;BME280;52491;45.900;6.346;2022-10-15T11:35:43;93753.06;;;25.01;42.02
65359;BME280;52491;45.900;6.346;2022-10-15T11:46:21;93738.13;;;25.10;41.77
65359;BME280;52491;45.900;6.346;2022-10-15T11:48:59;93739.47;;;25.13;42.04
65359;BME280;52491;45.900;6.346;2022-10-15T11:51:32;93736.78;;;25.13;41.87
65359;BME280;52491;45.900;6.346;2022-10-15T11:56:52;93730.66;;;25.17;41.81
65359;BME280;52491;45.900;6.346;2022-10-15T11:59:34;93732.00;;;25.20;41.50
65359;BME280;52491;45.900;6.346;2022-10-15T12:02:28;93731.72;;;25.21;41.43
65359;BME280;52491;45.900;6.346;2022-10-15T12:04:59;93730.09;;;25.26;41.35
65359;BME280;52491;45.900;6.346;2022-10-15T12:07:38;93725.31;;;25.22;41.55
65359;BME280;52491;45.900;6.346;2022-10-15T12:20:30;93694.38;;;25.21;40.83
65359;BME280;52491;45.900;6.346;2022-10-15T12:23:00;93695.44;;;25.20;41.18
65359;BME280;52491;45.900;6.346;2022-10-15T12:30:34;93691.97;;;25.25;41.16
65359;BME280;52491;45.900;6.346;2022-10-15T12:33:03;93682.06;;;25.26;41.58
65359;BME280;52491;45.900;6.346;2022-10-15T12:35:34;93677.28;;;25.28;41.45
65359;BME280;52491;45.900;6.346;2022-10-15T12:38:26;93679.16;;;25.27;41.51
65359;BME280;52491;45.900;6.346;2022-10-15T12:41:02;93680.75;;;25.28;41.76
65359;BME280;52491;45.900;6.346;2022-10-15T12:43:30;93676.19;;;25.29;41.86
65359;BME280;52491;45.900;6.346;2022-10-15T12:46:01;93681.53;;;25.29;41.60
65359;BME280;52491;45.900;6.346;2022-10-15T12:48:36;93676.19;;;25.29;41.60
65359;BME280;52491;45.900;6.346;2022-10-15T12:53:48;93660.72;;;25.31;41.52
65359;BME280;52491;45.900;6.346;2022-10-15T12:58:47;93660.16;;;25.34;41.94
65359;BME280;52491;45.900;6.346;2022-10-15T13:11:52;93653.72;;;25.40;41.54
65359;BME280;52491;45.900;6.346;2022-10-15T13:14:40;93641.22;;;25.40;41.58
65359;BME280;52491;45.900;6.346;2022-10-15T13:17:17;93652.69;;;25.41;42.00
65359;BME280;52491;45.900;6.346;2022-10-15T13:20:04;93640.69;;;25.38;41.71
65359;BME280;52491;45.900;6.346;2022-10-15T13:22:34;93644.13;;;25.44;41.78
65359;BME280;52491;45.900;6.346;2022-10-15T13:25:00;93638.22;;;25.47;41.85
65359;BME280;52491;45.900;6.346;2022-10-15T13:27:34;93632.59;;;25.49;41.88
65359;BME280;52491;45.900;6.346;2022-10-15T13:32:46;93625.41;;;25.49;41.78
65359;BME280;52491;45.900;6.346;2022-10-15T13:35:23;93628.88;;;25.50;41.78
65359;BME280;52491;45.900;6.346;2022-10-15T13:37:51;93627.78;;;25.51;41.98
65359;BME280;52491;45.900;6.346;2022-10-15T13:40:22;93628.59;;;25.51;42.09
65359;BME280;52491;45.900;6.346;2022-10-15T13:43:02;93622.97;;;25.53;41.72
65359;BME280;52491;45.900;6.346;2022-10-15T13:45:29;93622.69;;;25.54;41.79
65359;BME280;52491;45.900;6.346;2022-10-15T13:47:55;93628.31;;;25.53;41.60
65359;BME280;52491;45.900;6.346;2022-10-15T13:50:23;93628.03;;;25.54;41.57
65359;BME280;52491;45.900;6.346;2022-10-15T13:52:54;93627.25;;;25.54;41.77
65359;BME280;52491;45.900;6.346;2022-10-15T13:55:24;93628.56;;;25.56;41.87
65359;BME280;52491;45.900;6.346;2022-10-15T13:57:58;93623.22;;;25.56;42.10
65359;BME280;52491;45.900;6.346;2022-10-15T14:00:27;93633.09;;;25.56;41.90
65359;BME280;52491;45.900;6.346;2022-10-15T14:03:31;93630.69;;;25.54;42.04
65359;BME280;52491;45.900;6.346;2022-10-15T14:06:20;93633.38;;;25.54;41.88
65359;BME280;52491;45.900;6.346;2022-10-15T14:08:48;93641.91;;;25.56;42.32
65359;BME280;52491;45.900;6.346;2022-10-15T14:11:14;93633.09;;;25.56;41.90
65359;BME280;52491;45.900;6.346;2022-10-15T14:13:48;93634.97;;;25.55;41.82
65359;BME280;52491;45.900;6.346;2022-10-15T14:21:32;93644.91;;;25.50;42.48
65359;BME280;52491;45.900;6.346;2022-10-15T14:24:11;93634.47;;;25.48;42.57
65359;BME280;52491;45.900;6.346;2022-10-15T14:26:38;93642.47;;;25.48;42.22
65359;BME280;52491;45.900;6.346;2022-10-15T14:29:05;93641.69;;;25.48;41.91
65359;BME280;52491;45.900;6.346;2022-10-15T14:31:39;93642.47;;;25.48;42.17
65359;BME280;52491;45.900;6.346;2022-10-15T14:34:45;93641.44;;;25.49;42.06
65359;BME280;52491;45.900;6.346;2022-10-15T14:37:31;93637.69;;;25.50;42.15
65359;BME280;52491;45.900;6.346;2022-10-15T14:45:18;93648.88;;;25.52;41.85
65359;BME280;52491;45.900;6.346;2022-10-15T14:47:51;93642.47;;;25.53;42.02
65359;BME280;52491;45.900;6.346;2022-10-15T14:50:18;93649.69;;;25.53;42.09
65359;BME280;52491;45.900;6.346;2022-10-15T14:52:46;93654.72;;;25.54;41.87
65359;BME280;52491;45.900;6.346;2022-10-15T14:57:42;93647.25;;;25.56;42.41
65359;BME280;52491;45.900;6.346;2022-10-15T15:00:25;93646.19;;;25.57;42.26
65359;BME280;52491;45.900;6.346;2022-10-15T15:02:52;93653.38;;;25.57;42.43
65359;BME280;52491;45.900;6.346;2022-10-15T15:05:21;93652.09;;;25.49;42.24
65359;BME280;52491;45.900;6.346;2022-10-15T15:07:47;93654.56;;;25.40;42.38
65359;BME280;52491;45.900;6.346;2022-10-15T15:10:13;93660.69;;;25.36;42.60
65359;BME280;52491;45.900;6.346;2022-10-15T15:12:39;93663.38;;;25.31;42.77
65359;BME280;52491;45.900;6.346;2022-10-15T15:15:14;93663.13;;;25.27;42.75